Time;durP1;ratioP1;P1;durP2;ratioP2;P2;SDS_P1;SDS_P2;PMS_P1;PMS_P2;Temp;Humidity;BMP_temperature;BMP_pressure;BME280_temperature;BME280_humidity;BME280_pressure;Samples;Min_cycle;Max_cycle;Signal;HPM_P1;HPM_P2
2023/05/27 00:02:12;;;;;;;12.68;6.10;;;;;;;;;;6321027;22;20169;-94
2023/05/27 00:05:17;;;;;;;14.48;5.88;;;;;;;;;;6318440;22;20161;-90
2023/05/27 00:08:24;;;;;;;12.68;6.70;;;;;;;;;;6317530;22;20169;-91
2023/05/27 00:11:29;;;;;;;10.50;5.68;;;;;;;;;;6318296;22;20204;-91
2023/05/27 00:14:35;;;;;;;12.43;5.80;;;;;;;;;;6320114;22;20220;-93
2023/05/27 00:17:52;;;;;;;18.95;6.05;;;;;;;;;;6319855;22;20161;-92
2023/05/27 00:20:58;;;;;;;11.80;5.07;;;;;;;;;;6301716;22;20238;-90
2023/05/27 00:24:17;;;;;;;14.20;5.85;;;;;;;;;;6319888;22;20251;-91
2023/05/27 00:27:25;;;;;;;14.55;5.85;;;;;;;;;;6318080;22;20177;-89
2023/05/27 00:30:30;;;;;;;10.55;5.55;;;;;;;;;;6321305;22;20203;-91
2023/05/27 00:33:35;;;;;;;11.93;5.78;;;;;;;;;;6321160;22;20170;-91
2023/05/27 00:36:40;;;;;;;13.98;5.40;;;;;;;;;;6320430;22;20144;-89
2023/05/27 00:39:47;;;;;;;14.23;5.80;;;;;;;;;;6319145;22;20165;-91
2023/05/27 00:42:52;;;;;;;13.30;5.78;;;;;;;;;;6320423;22;20249;-92
2023/05/27 00:45:57;;;;;;;12.75;5.85;;;;;;;;;;6303719;22;20165;-92
2023/05/27 00:49:02;;;;;;;14.50;5.72;;;;;;;;;;6321580;22;20165;-92
2023/05/27 00:52:07;;;;;;;13.45;6.30;;;;;;;;;;6321751;22;20243;-91
2023/05/27 00:55:14;;;;;;;15.65;6.93;;;;;;;;;;6320091;22;20290;-90
2023/05/27 00:58:21;;;;;;;14.45;5.75;;;;;;;;;;6319712;22;20153;-91
2023/05/27 01:01:26;;;;;;;17.98;6.43;;;;;;;;;;6321124;22;20157;-93
2023/05/27 01:04:31;;;;;;;11.73;5.75;;;;;;;;;;6321376;22;20605;-90
2023/05/27 01:07:40;;;;;;;15.18;6.18;;;;;;;;;;6320859;22;20168;-93
2023/05/27 01:10:48;;;;;;;14.23;5.72;;;;;;;;;;6318677;22;20193;-91
2023/05/27 01:13:57;;;;;;;15.27;6.05;;;;;;;;;;6303103;22;20199;-93
2023/05/27 01:20:43;;;;;;;11.90;5.53;;;;;;;;;;6323134;22;20176;-92
2023/05/27 01:23:51;;;;;;;16.42;6.20;;;;;;;;;;6321744;22;20157;-90
2023/05/27 01:27:27;;;;;;;11.38;5.60;;;;;;;;;;6321477;22;20197;-89
2023/05/27 01:30:33;;;;;;;10.52;5.40;;;;;;;;;;6322447;22;20270;-90
2023/05/27 01:33:39;;;;;;;15.88;6.07;;;;;;;;;;6323932;22;20196;-92
2023/05/27 01:36:45;;;;;;;13.32;5.95;;;;;;;;;;6321835;22;20636;-90
2023/05/27 01:39:51;;;;;;;13.25;5.80;;;;;;;;;;6305170;22;20219;-92
2023/05/27 01:42:57;;;;;;;17.13;6.00;;;;;;;;;;6323499;22;20160;-90
2023/05/27 01:46:05;;;;;;;11.68;6.35;;;;;;;;;;6320712;22;20659;-90
2023/05/27 01:49:10;;;;;;;17.45;6.93;;;;;;;;;;6324699;22;20164;-91
2023/05/27 01:52:15;;;;;;;16.58;6.55;;;;;;;;;;6321622;22;20177;-91
2023/05/27 01:55:21;;;;;;;14.00;6.18;;;;;;;;;;6322642;22;20243;-92
2023/05/27 01:58:29;;;;;;;13.15;6.13;;;;;;;;;;6321267;22;20165;-90
2023/05/27 02:01:35;;;;;;;14.73;6.07;;;;;;;;;;6321566;22;20255;-90
2023/05/27 02:04:41;;;;;;;15.13;6.47;;;;;;;;;;6323544;22;20165;-92
2023/05/27 02:07:46;;;;;;;15.63;6.10;;;;;;;;;;6306649;22;20152;-91
2023/05/27 02:10:51;;;;;;;14.50;6.38;;;;;;;;;;6304837;22;20188;-89
2023/05/27 02:13:59;;;;;;;14.75;5.85;;;;;;;;;;6305614;22;20255;-92
2023/05/27 02:17:06;;;;;;;19.90;7.07;;;;;;;;;;6304789;22;20177;-90
2023/05/27 02:20:12;;;;;;;12.15;5.88;;;;;;;;;;6304030;22;20169;-91
2023/05/27 02:23:28;;;;;;;21.17;7.30;;;;;;;;;;6323051;22;20153;-90
2023/05/27 02:26:39;;;;;;;17.05;7.53;;;;;;;;;;6304003;22;20169;-92
2023/05/27 02:29:44;;;;;;;17.77;6.20;;;;;;;;;;6322252;22;20188;-90
2023/05/27 02:32:51;;;;;;;17.45;6.57;;;;;;;;;;6322228;22;20499;-91
2023/05/27 02:35:56;;;;;;;11.35;5.30;;;;;;;;;;6305097;22;20169;-90
2023/05/27 02:39:01;;;;;;;17.00;5.78;;;;;;;;;;6322494;22;20285;-92
2023/05/27 02:42:06;;;;;;;13.70;6.18;;;;;;;;;;6323989;22;20168;-91
2023/05/27 02:45:11;;;;;;;14.77;6.20;;;;;;;;;;6323287;22;20164;-92
2023/05/27 02:48:18;;;;;;;15.65;5.70;;;;;;;;;;6323183;22;20292;-89
2023/05/27 02:51:23;;;;;;;16.05;6.05;;;;;;;;;;6305388;22;20189;-91
2023/05/27 02:54:29;;;;;;;16.13;6.95;;;;;;;;;;6321979;22;20610;-89
2023/05/27 02:57:34;;;;;;;18.98;7.38;;;;;;;;;;6322607;22;20153;-91
2023/05/27 03:00:39;;;;;;;14.75;7.00;;;;;;;;;;6321837;22;20231;-92
2023/05/27 03:03:46;;;;;;;21.70;7.35;;;;;;;;;;6319326;22;20223;-92
2023/05/27 03:06:51;;;;;;;13.95;7.05;;;;;;;;;;6322613;22;20196;-91
2023/05/27 03:09:57;;;;;;;16.67;7.10;;;;;;;;;;6322658;22;20165;-92
2023/05/27 03:13:02;;;;;;;15.07;7.20;;;;;;;;;;6321503;22;20168;-90
2023/05/27 03:16:08;;;;;;;19.08;7.72;;;;;;;;;;6322566;22;20304;-91
2023/05/27 03:19:29;;;;;;;17.73;7.90;;;;;;;;;;6321114;22;20188;-90
2023/05/27 03:23:12;;;;;;;15.32;7.18;;;;;;;;;;6321148;22;20726;-90
2023/05/27 03:26:19;;;;;;;18.25;7.10;;;;;;;;;;6303149;22;20160;-90
2023/05/27 03:29:24;;;;;;;17.42;6.75;;;;;;;;;;6300939;22;20644;-89
2023/05/27 03:32:29;;;;;;;14.77;6.82;;;;;;;;;;6320696;22;20227;-90
2023/05/27 03:35:35;;;;;;;16.48;7.45;;;;;;;;;;6302526;22;20169;-91
2023/05/27 03:38:40;;;;;;;20.08;7.50;;;;;;;;;;6320485;22;20168;-92
2023/05/27 03:41:46;;;;;;;14.65;6.85;;;;;;;;;;6319798;22;20727;-90
2023/05/27 03:44:52;;;;;;;15.57;6.65;;;;;;;;;;6320238;22;20165;-91
2023/05/27 03:47:57;;;;;;;17.15;7.22;;;;;;;;;;6303542;22;20145;-89
2023/05/27 03:51:02;;;;;;;15.02;7.10;;;;;;;;;;6322508;22;20188;-89
2023/05/27 03:54:10;;;;;;;16.30;7.07;;;;;;;;;;6322277;22;20161;-90
2023/05/27 03:57:17;;;;;;;15.48;6.93;;;;;;;;;;6319021;22;20177;-91
2023/05/27 04:00:24;;;;;;;15.73;7.05;;;;;;;;;;6319271;22;20178;-90
2023/05/27 04:03:31;;;;;;;13.10;6.68;;;;;;;;;;6320250;22;20149;-89
2023/05/27 04:06:37;;;;;;;20.27;6.90;;;;;;;;;;6302746;22;20176;-91
2023/05/27 04:09:42;;;;;;;16.85;6.45;;;;;;;;;;6303435;22;20620;-90
2023/05/27 04:12:48;;;;;;;14.13;6.47;;;;;;;;;;6320385;22;20168;-90
2023/05/27 04:15:56;;;;;;;16.60;6.15;;;;;;;;;;6319833;22;20195;-91
2023/05/27 04:19:03;;;;;;;16.42;6.13;;;;;;;;;;6321939;22;20207;-90
2023/05/27 04:22:45;;;;;;;19.50;6.78;;;;;;;;;;6305313;22;20149;-90
2023/05/27 04:25:51;;;;;;;15.68;6.20;;;;;;;;;;6321366;22;20161;-90
2023/05/27 04:29:09;;;;;;;14.13;6.38;;;;;;;;;;6322358;22;20157;-90
2023/05/27 04:32:17;;;;;;;14.77;6.38;;;;;;;;;;6320301;22;20184;-90
2023/05/27 04:35:23;;;;;;;13.30;6.63;;;;;;;;;;6320403;22;20165;-92
2023/05/27 04:38:31;;;;;;;14.95;6.28;;;;;;;;;;6321232;22;20161;-92
2023/05/27 04:41:41;;;;;;;11.38;5.28;;;;;;;;;;6319050;22;20284;-91
2023/05/27 04:44:53;;;;;;;13.63;5.70;;;;;;;;;;6319494;22;20149;-89
2023/05/27 04:47:58;;;;;;;14.45;6.00;;;;;;;;;;6319822;22;20169;-90
2023/05/27 04:51:04;;;;;;;16.92;6.65;;;;;;;;;;6319595;22;20193;-90
2023/05/27 04:54:09;;;;;;;19.20;6.22;;;;;;;;;;6321272;22;20608;-90
2023/05/27 04:57:18;;;;;;;15.35;6.20;;;;;;;;;;6321078;22;20166;-91
2023/05/27 05:00:36;;;;;;;12.38;6.13;;;;;;;;;;6321666;22;20223;-90
2023/05/27 05:03:51;;;;;;;18.38;6.85;;;;;;;;;;6321769;22;20153;-90
2023/05/27 05:06:56;;;;;;;13.80;6.28;;;;;;;;;;6322048;22;20176;-90
2023/05/27 05:10:03;;;;;;;19.20;5.80;;;;;;;;;;6319416;22;20164;-91
2023/05/27 05:13:13;;;;;;;16.88;6.60;;;;;;;;;;6322050;22;20153;-90
2023/05/27 05:16:21;;;;;;;12.13;5.68;;;;;;;;;;6321836;22;20167;-90
2023/05/27 05:19:26;;;;;;;21.83;5.78;;;;;;;;;;6321066;22;20174;-92
2023/05/27 05:26:06;;;;;;;18.13;5.15;;;;;;;;;;6320731;22;20157;-91
2023/05/27 05:29:14;;;;;;;14.57;5.22;;;;;;;;;;6303942;22;20208;-91
2023/05/27 05:32:21;;;;;;;18.25;6.10;;;;;;;;;;6322264;22;20253;-90
2023/05/27 05:35:27;;;;;;;18.25;6.53;;;;;;;;;;6321115;22;20173;-92
2023/05/27 05:38:39;;;;;;;17.73;6.68;;;;;;;;;;6319258;22;20164;-90
2023/05/27 05:41:45;;;;;;;14.25;7.20;;;;;;;;;;6321172;22;20184;-91
2023/05/27 05:44:51;;;;;;;19.30;6.80;;;;;;;;;;6320714;22;20165;-94
2023/05/27 05:47:58;;;;;;;17.45;5.93;;;;;;;;;;6322322;22;20153;-90
2023/05/27 05:51:06;;;;;;;14.70;5.70;;;;;;;;;;6321566;22;20635;-91
2023/05/27 05:54:11;;;;;;;17.67;5.05;;;;;;;;;;6321051;22;20168;-91
2023/05/27 05:57:22;;;;;;;18.27;5.28;;;;;;;;;;6322592;22;20176;-88
2023/05/27 06:00:28;;;;;;;13.98;4.82;;;;;;;;;;6306482;22;20189;-91
2023/05/27 06:03:46;;;;;;;21.70;5.07;;;;;;;;;;6324682;22;20177;-90
2023/05/27 06:07:04;;;;;;;15.30;4.18;;;;;;;;;;6322627;22;20211;-91
2023/05/27 06:10:18;;;;;;;13.18;4.72;;;;;;;;;;6322401;22;20165;-91
2023/05/27 06:13:23;;;;;;;18.45;4.60;;;;;;;;;;6325600;22;20169;-92
2023/05/27 06:16:31;;;;;;;11.85;4.20;;;;;;;;;;6324088;22;20165;-90
2023/05/27 06:19:37;;;;;;;16.88;4.90;;;;;;;;;;6322791;22;20171;-91
2023/05/27 06:22:43;;;;;;;18.85;5.03;;;;;;;;;;6304956;22;20172;-92
2023/05/27 06:26:21;;;;;;;17.02;4.90;;;;;;;;;;6304716;22;20203;-92
2023/05/27 06:29:29;;;;;;;11.20;4.20;;;;;;;;;;6321862;22;20204;-91
2023/05/27 06:32:34;;;;;;;13.75;3.88;;;;;;;;;;6323272;22;20237;-90
2023/05/27 06:35:41;;;;;;;13.38;3.58;;;;;;;;;;6323415;22;20161;-91
2023/05/27 06:38:47;;;;;;;11.70;3.83;;;;;;;;;;6322693;22;20168;-93
2023/05/27 06:41:52;;;;;;;14.10;4.03;;;;;;;;;;6323999;22;20160;-91
2023/05/27 06:45:17;;;;;;;11.75;3.55;;;;;;;;;;6324505;22;20326;-92
2023/05/27 06:48:24;;;;;;;13.93;3.53;;;;;;;;;;6321029;22;20165;-91
2023/05/27 06:51:31;;;;;;;10.70;3.50;;;;;;;;;;6324376;22;20192;-91
2023/05/27 06:54:37;;;;;;;19.63;3.80;;;;;;;;;;6323578;22;20172;-89
2023/05/27 06:58:02;;;;;;;11.98;3.47;;;;;;;;;;6324004;22;20586;-92
2023/05/27 07:01:19;;;;;;;11.38;3.33;;;;;;;;;;6302692;22;20182;-91
2023/05/27 07:04:45;;;;;;;11.73;3.47;;;;;;;;;;6323577;22;20173;-90
2023/05/27 07:07:52;;;;;;;11.85;3.45;;;;;;;;;;6325113;22;20189;-93
2023/05/27 07:10:57;;;;;;;8.25;3.40;;;;;;;;;;6324533;22;20616;-91
2023/05/27 07:14:02;;;;;;;12.00;3.15;;;;;;;;;;6306909;22;20169;-89
2023/05/27 07:17:11;;;;;;;14.85;2.90;;;;;;;;;;6325128;22;20173;-90
2023/05/27 07:20:17;;;;;;;11.73;3.10;;;;;;;;;;6326085;22;20219;-93
2023/05/27 07:23:42;;;;;;;11.85;2.80;;;;;;;;;;6326796;22;20164;-91
2023/05/27 07:27:09;;;;;;;15.85;3.55;;;;;;;;;;6309042;22;20165;-93
2023/05/27 07:30:18;;;;;;;9.82;2.97;;;;;;;;;;6328436;22;20238;-94
2023/05/27 07:37:43;;;;;;;10.95;3.35;;;;;;;;;;6329822;22;20597;-92
2023/05/27 07:40:55;;;;;;;10.85;2.58;;;;;;;;;;6308970;22;20164;-92
2023/05/27 07:44:00;;;;;;;10.38;2.90;;;;;;;;;;6327974;22;20198;-90
2023/05/27 07:47:06;;;;;;;12.38;3.05;;;;;;;;;;6326134;22;20169;-93
2023/05/27 07:50:12;;;;;;;11.60;3.40;;;;;;;;;;6325998;22;20153;-92
2023/05/27 07:56:54;;;;;;;13.05;3.20;;;;;;;;;;6328339;22;20204;-92
2023/05/27 08:00:05;;;;;;;13.40;3.42;;;;;;;;;;6327576;22;20201;-91
2023/05/27 08:03:30;;;;;;;9.35;3.33;;;;;;;;;;6327195;22;20169;-91
2023/05/27 08:06:56;;;;;;;11.57;3.00;;;;;;;;;;6302931;22;20173;-91
2023/05/27 08:10:21;;;;;;;9.57;2.78;;;;;;;;;;6326350;22;20153;-93
2023/05/27 08:13:43;;;;;;;13.05;3.10;;;;;;;;;;6326441;22;20233;-93
2023/05/27 08:17:22;;;;;;;13.40;3.47;;;;;;;;;;6307686;22;20169;-92
2023/05/27 08:24:44;;;;;;;10.52;2.95;;;;;;;;;;6328749;22;20188;-92
2023/05/27 08:28:04;;;;;;;11.30;3.13;;;;;;;;;;6309772;22;20165;-89
2023/05/27 08:31:51;;;;;;;10.95;3.05;;;;;;;;;;6327270;22;20188;-91
2023/05/27 08:34:59;;;;;;;10.40;2.88;;;;;;;;;;6308824;22;20223;-91
2023/05/27 08:38:06;;;;;;;11.50;4.00;;;;;;;;;;6328585;22;20188;-93
2023/05/27 08:41:16;;;;;;;10.70;3.08;;;;;;;;;;6311507;22;20156;-92
2023/05/27 08:44:23;;;;;;;11.55;3.28;;;;;;;;;;6329143;22;20190;-92
2023/05/27 08:47:39;;;;;;;11.55;3.63;;;;;;;;;;6309351;22;20185;-93
2023/05/27 08:51:04;;;;;;;9.25;2.90;;;;;;;;;;6311024;22;20164;-93
2023/05/27 08:57:45;;;;;;;11.15;2.83;;;;;;;;;;6327862;22;20179;-91
2023/05/27 09:07:30;;;;;;;6.60;2.63;;;;;;;;;;6329095;22;20168;-92
2023/05/27 09:10:40;;;;;;;10.05;2.90;;;;;;;;;;6328775;22;20160;-91
2023/05/27 09:13:46;;;;;;;9.93;3.13;;;;;;;;;;6328893;22;20192;-92
2023/05/27 09:17:09;;;;;;;11.27;2.92;;;;;;;;;;6327356;22;20168;-90
2023/05/27 09:20:16;;;;;;;9.45;2.72;;;;;;;;;;6310654;22;20156;-93
2023/05/27 09:27:47;;;;;;;12.32;3.53;;;;;;;;;;6334019;22;20167;-92
2023/05/27 09:30:55;;;;;;;11.27;3.15;;;;;;;;;;6327628;22;20221;-92
2023/05/27 09:34:11;;;;;;;11.25;3.17;;;;;;;;;;6310055;22;20295;-91
2023/05/27 09:37:20;;;;;;;9.38;2.92;;;;;;;;;;6327178;22;20643;-92
2023/05/27 09:40:28;;;;;;;10.70;2.97;;;;;;;;;;6328916;22;20203;-93
2023/05/27 09:43:35;;;;;;;10.07;2.72;;;;;;;;;;6328641;22;20161;-89
2023/05/27 09:46:42;;;;;;;10.15;2.53;;;;;;;;;;6328909;22;20176;-92
2023/05/27 09:49:51;;;;;;;8.23;3.03;;;;;;;;;;6327789;22;20199;-91
2023/05/27 09:52:57;;;;;;;10.20;3.00;;;;;;;;;;6328836;22;20639;-92
2023/05/27 09:56:03;;;;;;;12.38;3.33;;;;;;;;;;6330157;22;20156;-90
2023/05/27 09:59:11;;;;;;;11.18;3.00;;;;;;;;;;6313331;22;20168;-92
2023/05/27 10:02:19;;;;;;;10.30;3.15;;;;;;;;;;6310323;22;20180;-91
2023/05/27 10:05:25;;;;;;;8.52;2.90;;;;;;;;;;6327839;22;20179;-91
2023/05/27 10:08:31;;;;;;;8.82;3.10;;;;;;;;;;6328256;22;20184;-92
2023/05/27 10:11:38;;;;;;;10.27;2.58;;;;;;;;;;6330595;22;20164;-93
2023/05/27 10:14:46;;;;;;;7.65;2.88;;;;;;;;;;6329725;22;20153;-91
2023/05/27 10:17:55;;;;;;;8.23;3.03;;;;;;;;;;6328622;22;20188;-91
2023/05/27 10:21:01;;;;;;;11.85;3.20;;;;;;;;;;6325158;22;20211;-90
2023/05/27 10:24:06;;;;;;;10.05;3.00;;;;;;;;;;6326320;22;20178;-92
2023/05/27 10:27:17;;;;;;;10.70;2.72;;;;;;;;;;6326543;22;20203;-91
2023/05/27 10:30:25;;;;;;;9.00;2.85;;;;;;;;;;6327517;22;20168;-92
2023/05/27 10:33:32;;;;;;;12.35;2.85;;;;;;;;;;6326301;22;20199;-94
2023/05/27 10:36:37;;;;;;;13.88;3.22;;;;;;;;;;6325779;22;20168;-90
2023/05/27 10:39:43;;;;;;;9.88;3.03;;;;;;;;;;6326230;22;20147;-93
2023/05/27 22:35:27;;;;;;;14.57;5.07;;;;;;;;;;6207314;22;1616972;-90
2023/05/27 22:38:33;;;;;;;15.20;5.03;;;;;;;;;;6274493;22;20154;-92
2023/05/27 22:41:38;;;;;;;11.93;4.75;;;;;;;;;;6276393;22;20149;-91
2023/05/27 22:44:45;;;;;;;15.48;5.22;;;;;;;;;;6275118;22;20170;-90
2023/05/27 22:47:50;;;;;;;15.68;5.07;;;;;;;;;;6275837;22;20375;-92
2023/05/27 22:50:57;;;;;;;13.85;5.30;;;;;;;;;;6275708;22;20165;-91
2023/05/27 22:54:02;;;;;;;12.82;4.93;;;;;;;;;;6275325;22;20174;-92
2023/05/27 22:57:07;;;;;;;20.30;5.63;;;;;;;;;;6274655;22;20268;-89
2023/05/27 23:00:13;;;;;;;15.60;5.18;;;;;;;;;;6275812;22;20178;-92
2023/05/27 23:03:19;;;;;;;16.13;5.82;;;;;;;;;;6276179;22;20232;-90
2023/05/27 23:06:25;;;;;;;18.25;7.25;;;;;;;;;;6277063;22;20221;-92
2023/05/27 23:09:31;;;;;;;13.85;5.10;;;;;;;;;;6275406;22;20234;-89
2023/05/27 23:12:37;;;;;;;22.38;5.65;;;;;;;;;;6274494;22;20210;-92
2023/05/27 23:15:44;;;;;;;14.35;6.00;;;;;;;;;;6275247;22;20197;-91
2023/05/27 23:18:50;;;;;;;15.05;5.15;;;;;;;;;;6272928;22;20170;-92
2023/05/27 23:22:01;;;;;;;18.27;5.03;;;;;;;;;;6275636;22;20166;-93
2023/05/27 23:25:07;;;;;;;13.23;5.25;;;;;;;;;;6275872;22;20240;-90
2023/05/27 23:28:17;;;;;;;15.25;4.85;;;;;;;;;;6274092;22;20153;-92
2023/05/27 23:31:22;;;;;;;13.05;5.15;;;;;;;;;;6275543;22;20490;-90
2023/05/27 23:34:27;;;;;;;14.85;5.57;;;;;;;;;;6275778;22;20169;-89
2023/05/27 23:37:35;;;;;;;14.70;4.78;;;;;;;;;;6262484;22;20194;-90
2023/05/27 23:40:40;;;;;;;15.52;5.15;;;;;;;;;;6261623;22;20162;-90
2023/05/27 23:43:45;;;;;;;13.25;5.30;;;;;;;;;;6262261;22;20173;-91
2023/05/27 23:46:50;;;;;;;11.45;4.72;;;;;;;;;;6260064;22;20170;-92
2023/05/27 23:49:55;;;;;;;14.02;5.00;;;;;;;;;;6262410;22;20154;-91
2023/05/27 23:53:02;;;;;;;16.50;5.03;;;;;;;;;;6261863;22;20207;-92
2023/05/27 23:56:07;;;;;;;16.85;5.10;;;;;;;;;;6259785;23;20190;-91
2023/05/27 23:59:13;;;;;;;14.80;4.43;;;;;;;;;;6261916;22;20193;-92
